createdAt,value
2023-08-04T00:01:56.562Z,63.86
2023-08-04T00:04:00.630Z,63.79
2023-08-04T00:06:09.182Z,63.35
2023-08-04T00:08:11.750Z,63.57
2023-08-04T00:10:14.421Z,63.68
2023-08-04T00:12:17.285Z,63.88
2023-08-04T00:14:19.974Z,64.02
2023-08-04T00:16:22.597Z,64.11
2023-08-04T00:18:24.283Z,64.38
2023-08-04T00:20:28.193Z,63.75
2023-08-04T00:22:30.789Z,64.24
2023-08-04T00:24:33.420Z,64.63
2023-08-04T00:26:36.043Z,65.19
2023-08-04T00:28:38.652Z,65.35
2023-08-04T00:30:41.266Z,65.52
2023-08-04T00:32:43.962Z,65.17
2023-08-04T00:34:47.333Z,65.74
2023-08-04T00:36:51.349Z,65.68
2023-08-04T00:38:53.949Z,65.59
2023-08-04T00:40:56.564Z,65.76
2023-08-04T00:42:59.178Z,65.46
2023-08-04T00:45:00.817Z,65.48
2023-08-04T00:47:03.349Z,65.08
2023-08-04T00:49:08.166Z,65.40
2023-08-04T00:51:11.138Z,65.21
2023-08-04T00:53:15.989Z,65.06
2023-08-04T00:55:19.685Z,64.82
2023-08-04T00:57:22.340Z,64.68
2023-08-04T00:59:25.036Z,64.65
2023-08-04T01:01:27.707Z,64.54
2023-08-04T01:03:30.686Z,64.42
2023-08-04T01:05:38.915Z,63.96
2023-08-04T01:07:48.341Z,64.18
2023-08-04T01:10:06.742Z,64.05
2023-08-04T01:12:16.455Z,63.96
2023-08-04T01:14:21.024Z,64.12
2023-08-04T01:16:23.869Z,64.15
2023-08-04T01:18:26.536Z,64.09
2023-08-04T01:20:29.772Z,64.12
2023-08-04T01:22:34.145Z,64.03
2023-08-04T01:24:36.798Z,64.01
2023-08-04T01:26:45.276Z,64.00
2023-08-04T01:28:50.235Z,63.95
2023-08-04T01:30:56.966Z,63.78
2023-08-04T01:32:59.974Z,63.76
2023-08-04T01:35:02.962Z,64.01
2023-08-04T01:37:05.908Z,64.33
2023-08-04T01:39:09.906Z,64.53
2023-08-04T01:41:11.583Z,65.55
2023-08-04T01:43:14.050Z,65.91
2023-08-04T01:45:16.649Z,66.07
2023-08-04T01:47:19.326Z,66.60
2023-08-04T01:49:22.212Z,67.40
2023-08-04T01:51:24.850Z,67.58
2023-08-04T01:53:27.459Z,67.78
2023-08-04T01:55:31.419Z,68.25
2023-08-04T01:57:34.148Z,68.07
2023-08-04T01:59:36.751Z,68.21
2023-08-04T02:01:39.381Z,67.50
2023-08-04T02:03:42.195Z,67.40
2023-08-04T02:05:47.873Z,66.38
2023-08-04T02:07:50.486Z,68.14
2023-08-04T02:09:53.806Z,67.58
2023-08-04T02:11:58.450Z,67.12
2023-08-04T02:14:01.150Z,68.26
2023-08-04T02:16:03.819Z,67.97
2023-08-04T02:18:06.607Z,68.55
2023-08-04T02:20:10.276Z,69.42
2023-08-04T02:22:12.953Z,69.54
2023-08-04T02:24:15.635Z,69.58
2023-08-04T02:26:18.261Z,69.24
2023-08-04T02:28:22.268Z,69.05
2023-08-04T02:30:24.949Z,68.57
2023-08-04T02:32:27.552Z,68.28
2023-08-04T02:34:29.342Z,67.91
2023-08-04T02:36:31.870Z,67.47
2023-08-04T02:38:34.563Z,67.63
2023-08-04T02:40:38.046Z,67.60
2023-08-04T02:42:40.663Z,67.24
2023-08-04T02:44:44.607Z,67.37
2023-08-04T02:46:47.343Z,67.25
2023-08-04T02:48:49.999Z,67.10
2023-08-04T02:50:58.676Z,67.13
2023-08-04T02:53:01.274Z,67.99
2023-08-04T02:55:03.916Z,67.73
2023-08-04T02:57:06.966Z,67.45
2023-08-04T02:59:09.589Z,67.02
2023-08-04T03:01:13.939Z,66.54
2023-08-04T03:03:16.667Z,66.44
2023-08-04T03:05:18.461Z,66.56
2023-08-04T03:07:21.124Z,66.58
2023-08-04T03:09:23.812Z,66.17
2023-08-04T03:11:26.920Z,66.15
2023-08-04T03:13:31.105Z,66.00
2023-08-04T03:15:33.718Z,66.22
2023-08-04T03:17:37.695Z,66.76
2023-08-04T03:19:40.424Z,66.40
2023-08-04T03:21:43.087Z,66.22
2023-08-04T03:23:45.678Z,66.53
2023-08-04T03:25:47.297Z,66.44
2023-08-04T03:27:49.876Z,66.56
2023-08-04T03:29:52.519Z,66.20
2023-08-04T03:31:54.178Z,66.25
2023-08-04T03:33:58.024Z,65.83
2023-08-04T03:36:00.626Z,65.70
2023-08-04T03:38:04.326Z,65.97
2023-08-04T03:40:07.726Z,65.29
2023-08-04T03:42:11.059Z,65.64
2023-08-04T03:44:13.722Z,66.25
2023-08-04T03:46:16.385Z,66.88
2023-08-04T03:48:19.046Z,66.82
2023-08-04T03:50:25.336Z,66.79
2023-08-04T03:52:28.061Z,66.88
2023-08-04T03:54:30.784Z,66.62
2023-08-04T03:56:33.500Z,66.40
2023-08-04T03:58:36.108Z,66.42
2023-08-04T04:00:38.743Z,66.34
2023-08-04T04:02:41.788Z,66.16
2023-08-04T04:04:44.589Z,66.30
2023-08-04T04:06:48.514Z,66.32
2023-08-04T04:08:51.574Z,66.36
2023-08-04T04:10:56.239Z,66.42
2023-08-04T04:12:58.904Z,66.66
2023-08-04T04:15:01.538Z,66.47
2023-08-04T04:17:04.513Z,66.48
2023-08-04T04:19:07.186Z,66.59
2023-08-04T04:21:08.830Z,66.60
2023-08-04T04:23:12.646Z,66.97
2023-08-04T04:25:15.403Z,66.42
2023-08-04T04:27:18.704Z,67.01
2023-08-04T04:29:21.346Z,67.00
2023-08-04T04:31:23.927Z,67.35
2023-08-04T04:33:26.556Z,67.36
2023-08-04T04:35:29.237Z,67.44
2023-08-04T04:37:31.865Z,67.48
2023-08-04T04:39:35.841Z,66.95
2023-08-04T04:41:39.813Z,67.17
2023-08-04T04:43:42.438Z,68.27
2023-08-04T04:45:50.351Z,68.18
2023-08-04T04:47:53.037Z,68.31
2023-08-04T04:49:55.750Z,68.28
2023-08-04T04:51:58.391Z,68.49
2023-08-04T04:54:01.092Z,68.67
2023-08-04T04:56:05.375Z,68.40
2023-08-04T04:58:08.140Z,68.49
2023-08-04T05:00:12.020Z,68.16
2023-08-04T05:02:14.701Z,67.68
2023-08-04T05:04:17.407Z,66.98
2023-08-04T05:06:19.056Z,66.51
2023-08-04T05:08:21.510Z,67.02
2023-08-04T05:10:24.097Z,67.33
2023-08-04T05:12:28.120Z,67.50
2023-08-04T05:14:30.758Z,67.47
2023-08-04T05:16:33.478Z,67.21
2023-08-04T05:18:36.260Z,67.48
2023-08-04T05:20:38.926Z,67.29
2023-08-04T05:22:41.620Z,67.31
2023-08-04T05:24:45.020Z,67.04
2023-08-04T05:26:48.979Z,67.24
2023-08-04T05:28:52.944Z,67.73
2023-08-04T05:30:56.197Z,67.49
2023-08-04T05:32:59.685Z,67.27
2023-08-04T05:35:02.379Z,67.84
2023-08-04T05:37:05.331Z,68.22
2023-08-04T05:39:08.029Z,68.43
2023-08-04T05:41:10.691Z,68.31
2023-08-04T05:43:13.151Z,68.33
2023-08-04T05:45:17.276Z,68.75
2023-08-04T05:47:20.965Z,68.29
2023-08-04T05:49:23.754Z,68.41
2023-08-04T05:51:26.415Z,68.25
2023-08-04T05:53:29.191Z,67.90
2023-08-04T05:55:31.998Z,67.59
2023-08-04T05:57:34.781Z,67.28
2023-08-04T05:59:37.410Z,67.38
2023-08-04T06:01:41.462Z,67.37
2023-08-04T06:03:45.108Z,67.30
2023-08-04T06:05:47.842Z,67.42
2023-08-04T06:07:50.455Z,67.84
2023-08-04T06:09:53.065Z,68.16
2023-08-04T06:11:55.723Z,67.71
2023-08-04T06:13:58.391Z,67.66
2023-08-04T06:16:01.066Z,67.44
2023-08-04T06:18:05.232Z,67.10
2023-08-04T06:20:09.349Z,67.22
2023-08-04T06:22:14.527Z,67.44
2023-08-04T06:24:27.830Z,67.33
2023-08-04T06:26:30.412Z,67.86
2023-08-04T06:28:33.024Z,67.69
2023-08-04T06:30:38.116Z,67.62
2023-08-04T06:32:40.775Z,67.79
2023-08-04T06:34:44.782Z,67.74
2023-08-04T06:36:47.965Z,66.94
2023-08-04T06:38:50.585Z,67.41
2023-08-04T06:40:53.278Z,67.78
2023-08-04T06:42:55.967Z,68.01
2023-08-04T06:44:58.852Z,68.46
2023-08-04T06:47:00.589Z,68.73
2023-08-04T06:49:03.283Z,68.50
2023-08-04T06:51:07.777Z,68.13
2023-08-04T06:53:11.172Z,68.31
2023-08-04T06:55:13.816Z,68.16
2023-08-04T06:57:16.499Z,67.97
2023-08-04T06:59:19.091Z,67.78
2023-08-04T07:01:21.757Z,67.66
2023-08-04T07:03:24.689Z,67.25
2023-08-04T07:05:27.485Z,66.96
2023-08-04T07:07:31.578Z,66.68
2023-08-04T07:09:34.220Z,66.81
2023-08-04T07:11:36.871Z,66.83
2023-08-04T07:13:39.470Z,66.60
2023-08-04T07:15:42.159Z,66.51
2023-08-04T07:17:44.809Z,66.85
2023-08-04T07:19:48.922Z,67.26
2023-08-04T07:21:51.680Z,66.03
2023-08-04T07:23:55.745Z,65.63
2023-08-04T07:25:57.558Z,65.49
2023-08-04T07:28:00.169Z,65.19
2023-08-04T07:30:03.029Z,65.16
2023-08-04T07:32:06.548Z,64.99
2023-08-04T07:34:09.189Z,64.81
2023-08-04T07:36:11.812Z,64.98
2023-08-04T07:38:14.440Z,64.89
2023-08-04T07:40:18.623Z,63.95
2023-08-04T07:42:21.235Z,64.34
2023-08-04T07:44:23.821Z,64.62
2023-08-04T07:46:28.095Z,64.54
2023-08-04T07:48:31.093Z,64.64
2023-08-04T07:50:33.835Z,64.69
2023-08-04T07:52:36.546Z,64.56
2023-08-04T07:54:39.166Z,64.12
2023-08-04T07:56:43.165Z,64.50
2023-08-04T07:58:45.955Z,64.97
2023-08-04T08:00:48.656Z,64.94
2023-08-04T08:02:51.349Z,64.72
2023-08-04T08:04:54.565Z,64.99
2023-08-04T08:06:57.268Z,65.28
2023-08-04T08:08:59.892Z,64.92
2023-08-04T08:11:04.783Z,64.36
2023-08-04T08:13:08.810Z,64.38
2023-08-04T08:15:12.641Z,63.97
2023-08-04T08:17:15.649Z,64.08
2023-08-04T08:19:18.302Z,64.14
2023-08-04T08:21:20.988Z,63.70
2023-08-04T08:23:23.607Z,64.14
2023-08-04T08:25:26.505Z,64.07
2023-08-04T08:27:29.104Z,63.75
2023-08-04T08:29:33.071Z,63.46
2023-08-04T08:31:35.980Z,62.63
2023-08-04T08:33:38.727Z,62.57
2023-08-04T08:35:41.425Z,62.58
2023-08-04T08:37:44.035Z,62.30
2023-08-04T08:39:46.655Z,60.90
2023-08-04T08:41:49.559Z,61.21
2023-08-04T08:43:52.442Z,61.42
2023-08-04T08:45:57.226Z,60.46
2023-08-04T08:48:00.652Z,61.03
2023-08-04T08:50:04.945Z,61.26
2023-08-04T08:52:09.644Z,59.95
2023-08-04T08:54:12.435Z,60.22
2023-08-04T08:56:15.732Z,59.72
2023-08-04T08:58:18.552Z,59.56
2023-08-04T09:00:22.058Z,59.73
2023-08-04T09:02:26.474Z,60.11
2023-08-04T09:04:29.926Z,58.81
2023-08-04T09:06:32.794Z,59.31
2023-08-04T09:08:35.433Z,58.73
2023-08-04T09:10:39.291Z,58.54
2023-08-04T09:12:42.018Z,58.20
2023-08-04T09:14:52.375Z,58.12
2023-08-04T09:16:54.992Z,58.10
2023-08-04T09:19:04.995Z,57.82
2023-08-04T09:21:12.901Z,56.48
2023-08-04T09:23:14.579Z,56.29
2023-08-04T09:25:17.193Z,56.69
2023-08-04T09:27:27.625Z,57.17
2023-08-04T09:29:30.254Z,56.46
2023-08-04T09:31:37.156Z,56.39
2023-08-04T09:33:43.124Z,56.44
2023-08-04T09:35:47.923Z,56.62
2023-08-04T09:37:56.493Z,56.34
2023-08-04T09:39:58.455Z,56.26
2023-08-04T09:42:01.749Z,55.75
2023-08-04T09:44:07.039Z,56.06
2023-08-04T09:46:12.358Z,55.95
2023-08-04T09:48:15.516Z,55.70
2023-08-04T09:50:18.456Z,56.19
2023-08-04T09:52:24.684Z,56.42
2023-08-04T09:54:27.361Z,56.71
2023-08-04T09:56:31.134Z,57.34
2023-08-04T09:58:34.954Z,57.24
2023-08-04T10:00:38.239Z,56.44
2023-08-04T10:02:41.335Z,56.80
2023-08-04T10:04:44.833Z,56.35
2023-08-04T10:06:47.835Z,55.22
2023-08-04T10:08:55.543Z,55.71
2023-08-04T10:10:58.874Z,55.77
2023-08-04T10:13:01.760Z,55.05
2023-08-04T10:15:06.364Z,54.59
2023-08-04T10:17:08.483Z,54.45
2023-08-04T10:19:14.105Z,54.51
2023-08-04T10:21:17.692Z,54.41
2023-08-04T10:23:20.757Z,53.64
2023-08-04T10:25:25.307Z,54.22
2023-08-04T10:27:29.027Z,54.16
2023-08-04T10:29:34.554Z,54.03
2023-08-04T10:31:53.116Z,53.59
2023-08-04T10:34:18.982Z,54.42
2023-08-04T10:36:21.642Z,53.92
2023-08-04T10:38:25.772Z,53.26
2023-08-04T10:40:31.247Z,52.97
2023-08-04T10:42:34.012Z,53.64
2023-08-04T10:44:53.117Z,53.25
2023-08-04T10:47:01.666Z,53.21
2023-08-04T10:49:04.437Z,53.36
2023-08-04T10:51:07.148Z,54.48
2023-08-04T10:53:10.009Z,54.24
2023-08-04T10:55:15.228Z,54.71
2023-08-04T10:57:22.430Z,54.80
2023-08-04T10:59:25.027Z,55.25
2023-08-04T11:01:29.004Z,54.88
2023-08-04T11:03:34.429Z,54.67
2023-08-04T11:05:37.196Z,54.72
2023-08-04T11:07:46.106Z,54.34
2023-08-04T11:09:50.033Z,54.39
2023-08-04T11:11:52.723Z,53.21
2023-08-04T11:13:59.448Z,53.56
2023-08-04T11:16:04.027Z,53.55
2023-08-04T11:18:11.876Z,53.73
2023-08-04T11:22:22.886Z,53.98
2023-08-04T11:24:25.623Z,52.00
2023-08-04T11:26:29.577Z,51.23
2023-08-04T11:28:33.734Z,49.19
2023-08-04T11:30:38.543Z,49.57
2023-08-04T11:32:41.379Z,51.13
2023-08-04T11:34:44.063Z,51.39
2023-08-04T11:36:47.541Z,51.09
2023-08-04T11:38:50.250Z,50.99
2023-08-04T11:40:58.303Z,50.63
2023-08-04T11:43:02.086Z,51.82
2023-08-04T11:45:09.792Z,53.51
2023-08-04T11:47:15.521Z,54.64
2023-08-04T11:49:18.230Z,55.83
2023-08-04T11:51:21.131Z,56.24
2023-08-04T11:53:24.540Z,56.25
2023-08-04T11:55:27.298Z,56.64
2023-08-04T11:57:30.051Z,56.33
2023-08-04T11:59:32.707Z,55.52
2023-08-04T12:01:36.126Z,55.80
2023-08-04T12:03:48.230Z,54.99
2023-08-04T12:05:52.230Z,54.76
2023-08-04T12:07:56.902Z,55.33
2023-08-04T12:09:59.663Z,54.62
2023-08-04T12:12:03.444Z,54.53
2023-08-04T12:14:10.218Z,54.60
2023-08-04T12:16:13.605Z,55.12
2023-08-04T12:18:24.193Z,54.83
2023-08-04T12:20:28.411Z,54.38
2023-08-04T12:22:31.079Z,53.93
2023-08-04T12:24:34.188Z,54.20
2023-08-04T12:26:36.770Z,54.37
2023-08-04T12:28:39.480Z,53.98
2023-08-04T12:30:42.113Z,54.19
2023-08-04T12:32:44.823Z,54.35
2023-08-04T12:34:47.438Z,54.64
2023-08-04T12:36:51.413Z,54.06
2023-08-04T12:38:54.032Z,53.37
2023-08-04T12:40:56.844Z,53.41
2023-08-04T12:42:59.620Z,53.59
2023-08-04T12:45:02.843Z,52.97
2023-08-04T12:47:05.035Z,52.73
2023-08-04T12:49:07.758Z,52.95
2023-08-04T12:51:10.516Z,53.19
2023-08-04T12:53:16.912Z,53.27
2023-08-04T12:55:19.627Z,53.59
2023-08-04T12:57:22.258Z,53.70
2023-08-04T12:59:24.860Z,54.25
2023-08-04T13:01:27.542Z,54.71
2023-08-04T13:03:30.194Z,54.85
2023-08-04T13:05:32.843Z,54.69
2023-08-04T13:07:35.473Z,54.18
2023-08-04T13:09:39.441Z,54.14
2023-08-04T13:11:42.196Z,53.60
2023-08-04T13:13:44.849Z,52.55
2023-08-04T13:15:48.379Z,51.03
2023-08-04T13:17:50.992Z,49.57
2023-08-04T13:19:53.655Z,48.20
2023-08-04T13:21:56.290Z,48.74
2023-08-04T13:23:58.870Z,47.95
2023-08-04T13:26:06.247Z,48.29
2023-08-04T13:28:09.314Z,47.96
2023-08-04T13:30:12.259Z,46.79
2023-08-04T13:32:15.011Z,47.97
2023-08-04T13:34:17.743Z,48.88
2023-08-04T13:36:20.448Z,49.74
2023-08-04T13:38:23.056Z,46.60
2023-08-04T13:40:25.796Z,42.85
2023-08-04T13:42:29.868Z,42.40
2023-08-04T13:44:32.619Z,42.64
2023-08-04T13:46:35.234Z,44.03
2023-08-04T13:48:38.027Z,45.79
2023-08-04T13:50:40.760Z,46.78
2023-08-04T13:52:43.463Z,48.38
2023-08-04T13:54:46.151Z,49.07
2023-08-04T13:56:49.486Z,49.03
2023-08-04T13:58:54.003Z,50.19
2023-08-04T14:01:01.143Z,51.33
2023-08-04T14:03:03.872Z,52.02
2023-08-04T14:05:07.666Z,52.88
2023-08-04T14:07:10.493Z,55.44
2023-08-04T14:09:13.485Z,58.63
2023-08-04T14:11:16.198Z,63.19
2023-08-04T14:13:18.860Z,72.11
2023-08-04T14:15:23.259Z,76.92
2023-08-04T14:17:26.067Z,78.05
2023-08-04T14:19:28.023Z,81.25
2023-08-04T14:21:30.634Z,83.57
2023-08-04T14:23:32.293Z,83.64
2023-08-04T14:25:34.972Z,80.95
2023-08-04T14:27:37.570Z,80.71
2023-08-04T14:29:40.191Z,77.63
2023-08-04T14:31:44.251Z,79.10
2023-08-04T14:33:47.011Z,78.85
2023-08-04T14:35:48.765Z,78.68
2023-08-04T14:37:51.353Z,80.45
2023-08-04T14:39:54.001Z,81.33
2023-08-04T14:41:56.656Z,81.56
2023-08-04T14:43:58.373Z,82.38
2023-08-04T14:46:01.369Z,82.16
2023-08-04T14:48:05.748Z,82.64
2023-08-04T14:50:10.154Z,82.49
2023-08-04T14:52:12.935Z,82.28
2023-08-04T14:54:15.727Z,82.35
2023-08-04T14:56:18.563Z,82.29
2023-08-04T14:58:21.364Z,81.51
2023-08-04T15:00:23.959Z,78.53
2023-08-04T15:02:26.619Z,79.64
2023-08-04T15:04:30.724Z,80.01
2023-08-04T15:06:33.480Z,80.17
2023-08-04T15:08:36.057Z,79.89
2023-08-04T15:10:38.770Z,79.88
2023-08-04T15:12:41.403Z,79.49
2023-08-04T15:14:44.872Z,79.05
2023-08-04T15:16:47.745Z,77.05
2023-08-04T15:18:50.710Z,76.56
2023-08-04T15:20:54.717Z,75.15
2023-08-04T15:22:57.372Z,76.48
2023-08-04T15:24:59.977Z,76.85
2023-08-04T15:27:02.580Z,76.56
2023-08-04T15:29:05.277Z,76.68
2023-08-04T15:31:09.433Z,78.26
2023-08-04T15:33:12.164Z,78.64
2023-08-04T15:35:14.895Z,78.61
2023-08-04T15:37:18.892Z,78.04
2023-08-04T15:39:21.669Z,76.86
2023-08-04T15:41:24.354Z,77.52
2023-08-04T15:43:26.976Z,79.20
2023-08-04T15:45:29.693Z,79.27
2023-08-04T15:47:32.422Z,79.06
2023-08-04T15:49:35.090Z,79.11
2023-08-04T15:51:37.694Z,78.92
2023-08-04T15:53:41.792Z,78.12
2023-08-04T15:55:43.674Z,78.61
2023-08-04T15:57:46.322Z,78.49
2023-08-04T15:59:49.103Z,78.42
2023-08-04T16:01:51.795Z,79.14
2023-08-04T16:03:55.573Z,78.90
2023-08-04T16:06:00.131Z,77.73
2023-08-04T16:08:02.730Z,77.35
2023-08-04T16:10:08.036Z,76.89
2023-08-04T16:12:10.994Z,74.78
2023-08-04T16:14:13.603Z,73.39
2023-08-04T16:16:16.261Z,73.70
2023-08-04T16:18:18.890Z,74.09
2023-08-04T16:20:21.587Z,73.94
2023-08-04T16:22:24.345Z,74.24
2023-08-04T16:24:26.966Z,74.70
2023-08-04T16:26:32.371Z,75.02
2023-08-04T16:28:36.731Z,75.68
2023-08-04T16:30:39.374Z,77.39
2023-08-04T16:32:42.030Z,77.89
2023-08-04T16:34:44.695Z,77.00
2023-08-04T16:36:47.531Z,76.80
2023-08-04T16:38:50.490Z,76.71
2023-08-04T16:40:56.370Z,76.70
2023-08-04T16:43:00.386Z,77.12
2023-08-04T16:45:03.547Z,75.40
2023-08-04T16:47:06.500Z,73.08
2023-08-04T16:49:09.131Z,69.84
2023-08-04T16:51:11.708Z,66.90
2023-08-04T16:53:14.362Z,66.55
2023-08-04T16:55:17.246Z,65.61
2023-08-04T16:57:19.913Z,65.48
2023-08-04T16:59:24.339Z,65.53
2023-08-04T17:01:27.037Z,65.40
2023-08-04T17:03:30.172Z,66.19
2023-08-04T17:05:33.418Z,67.03
2023-08-04T17:07:35.993Z,67.13
2023-08-04T17:09:38.599Z,67.48
2023-08-04T17:11:41.208Z,67.58
2023-08-04T17:13:44.580Z,67.35
2023-08-04T17:15:48.702Z,68.02
2023-08-04T17:17:53.066Z,68.76
2023-08-04T17:19:57.721Z,69.20
2023-08-04T17:22:00.404Z,68.80
2023-08-04T17:24:03.564Z,68.66
2023-08-04T17:26:21.921Z,68.65
2023-08-04T17:28:24.697Z,69.14
2023-08-04T17:30:27.390Z,69.39
2023-08-04T17:32:33.535Z,69.08
2023-08-04T17:34:36.243Z,69.47
2023-08-04T17:36:39.121Z,69.85
2023-08-04T17:38:41.776Z,70.38
2023-08-04T17:40:44.376Z,69.09
2023-08-04T17:42:47.000Z,69.16
2023-08-04T17:44:49.603Z,68.37
2023-08-04T17:46:52.324Z,68.69
2023-08-04T17:48:56.479Z,69.27
2023-08-04T17:50:59.918Z,69.45
2023-08-04T17:53:02.533Z,69.11
2023-08-04T17:55:05.896Z,68.73
2023-08-04T17:57:08.633Z,69.12
2023-08-04T17:59:11.306Z,68.65
2023-08-04T18:01:13.943Z,69.07
2023-08-04T18:03:15.662Z,69.29
2023-08-04T18:05:19.744Z,69.61
2023-08-04T18:07:22.365Z,69.68
2023-08-04T18:09:25.003Z,69.68
2023-08-04T18:11:27.624Z,70.06
2023-08-04T18:13:30.321Z,70.31
2023-08-04T18:15:32.986Z,70.46
2023-08-04T18:17:35.611Z,70.35
2023-08-04T18:19:38.318Z,69.40
2023-08-04T18:21:42.272Z,69.29
2023-08-04T18:23:44.876Z,68.94
2023-08-04T18:25:47.544Z,69.25
2023-08-04T18:27:49.228Z,69.46
2023-08-04T18:29:52.975Z,69.69
2023-08-04T18:31:55.567Z,69.42
2023-08-04T18:33:58.175Z,69.47
2023-08-04T18:36:00.967Z,68.39
2023-08-04T18:38:04.888Z,69.59
2023-08-04T18:40:08.743Z,70.30
2023-08-04T18:42:11.304Z,70.36
2023-08-04T18:44:13.904Z,70.68
2023-08-04T18:46:16.582Z,70.06
2023-08-04T18:48:19.280Z,69.87
2023-08-04T18:50:24.570Z,69.59
2023-08-04T18:52:27.341Z,70.34
2023-08-04T18:54:32.355Z,70.12
2023-08-04T18:56:35.066Z,70.73
2023-08-04T18:58:37.663Z,70.68
2023-08-04T19:00:40.300Z,70.43
2023-08-04T19:02:43.034Z,70.76
2023-08-04T19:04:44.934Z,71.02
2023-08-04T19:06:47.900Z,71.35
2023-08-04T19:08:50.695Z,70.07
2023-08-04T19:10:54.624Z,70.57
2023-08-04T19:12:57.225Z,70.92
2023-08-04T19:14:59.947Z,71.08
2023-08-04T19:17:04.406Z,71.49
2023-08-04T19:19:07.038Z,71.24
2023-08-04T19:21:09.663Z,71.11
2023-08-04T19:23:12.240Z,71.37
2023-08-04T19:25:14.960Z,71.56
2023-08-04T19:27:20.502Z,72.19
2023-08-04T19:29:23.245Z,72.11
2023-08-04T19:31:25.996Z,72.17
2023-08-04T19:33:28.676Z,72.29
2023-08-04T19:35:31.303Z,72.62
2023-08-04T19:37:33.947Z,72.63
2023-08-04T19:39:36.977Z,71.71
2023-08-04T19:41:39.638Z,71.23
2023-08-04T19:43:43.630Z,72.56
2023-08-04T19:45:46.339Z,72.43
2023-08-04T19:47:49.012Z,72.83
2023-08-04T19:49:51.682Z,73.54
2023-08-04T19:51:54.394Z,73.61
2023-08-04T19:53:57.104Z,73.48
2023-08-04T19:56:08.434Z,73.69
2023-08-04T19:58:12.342Z,74.00
2023-08-04T20:00:16.663Z,73.94
2023-08-04T20:02:19.355Z,74.34
2023-08-04T20:04:22.051Z,74.45
2023-08-04T20:06:24.722Z,74.54
2023-08-04T20:08:27.516Z,74.79
2023-08-04T20:10:30.657Z,75.37
2023-08-04T20:12:33.337Z,75.47
2023-08-04T20:14:35.918Z,76.33
2023-08-04T20:16:39.954Z,76.96
2023-08-04T20:18:43.236Z,77.54
2023-08-04T20:20:52.856Z,77.44
2023-08-04T20:22:55.651Z,77.57
2023-08-04T20:24:58.273Z,77.75
2023-08-04T20:27:01.006Z,77.96
2023-08-04T20:29:03.630Z,76.29
2023-08-04T20:31:07.538Z,77.34
2023-08-04T20:33:14.662Z,77.14
2023-08-04T20:35:17.412Z,77.74
2023-08-04T20:37:19.994Z,79.90
2023-08-04T20:39:22.691Z,79.86
2023-08-04T20:41:25.305Z,79.83
2023-08-04T20:43:26.953Z,80.31
2023-08-04T20:45:29.443Z,80.92
2023-08-04T20:47:32.152Z,80.87
2023-08-04T20:49:36.159Z,80.37
2023-08-04T20:51:38.778Z,80.38
2023-08-04T20:53:41.626Z,80.56
2023-08-04T20:55:45.177Z,80.44
2023-08-04T20:57:47.795Z,80.13
2023-08-04T20:59:50.531Z,79.91
2023-08-04T21:01:53.447Z,80.40
2023-08-04T21:03:56.914Z,81.67
2023-08-04T21:06:00.972Z,81.33
2023-08-04T21:08:02.787Z,82.02
2023-08-04T21:10:06.213Z,82.26
2023-08-04T21:12:09.703Z,82.66
2023-08-04T21:14:12.426Z,82.18
2023-08-04T21:16:15.062Z,82.07
2023-08-04T21:18:18.108Z,81.92
2023-08-04T21:20:21.109Z,81.68
2023-08-04T21:22:25.060Z,81.35
2023-08-04T21:24:29.096Z,81.06
2023-08-04T21:26:31.826Z,81.17
2023-08-04T21:28:34.518Z,81.03
2023-08-04T21:30:36.266Z,81.07
2023-08-04T21:32:39.002Z,80.59
2023-08-04T21:34:41.662Z,80.39
2023-08-04T21:36:44.251Z,79.27
2023-08-04T21:38:48.214Z,79.92
2023-08-04T21:40:50.813Z,80.53
2023-08-04T21:42:53.400Z,80.94
2023-08-04T21:44:56.682Z,81.36
2023-08-04T21:46:59.346Z,81.77
2023-08-04T21:49:03.821Z,81.17
2023-08-04T21:51:13.221Z,81.30
2023-08-04T21:53:15.907Z,81.79
2023-08-04T21:55:20.058Z,81.71
2023-08-04T21:57:21.693Z,81.76
2023-08-04T21:59:24.226Z,82.10
2023-08-04T22:01:26.865Z,81.84
2023-08-04T22:03:29.691Z,82.56
2023-08-04T22:05:34.781Z,81.95
2023-08-04T22:07:37.426Z,81.75
2023-08-04T22:09:40.034Z,81.71
2023-08-04T22:11:43.982Z,81.38
2023-08-04T22:13:46.696Z,81.26
2023-08-04T22:15:52.018Z,81.73
2023-08-04T22:17:54.754Z,81.06
2023-08-04T22:19:57.499Z,81.63
2023-08-04T22:22:00.103Z,82.16
2023-08-04T22:24:01.861Z,82.31
2023-08-04T22:26:07.041Z,82.19
2023-08-04T22:28:11.503Z,82.29
2023-08-04T22:30:14.202Z,82.05
2023-08-04T22:32:16.853Z,82.19
2023-08-04T22:34:19.508Z,81.88
2023-08-04T22:36:22.059Z,82.12
2023-08-04T22:38:24.657Z,81.78
2023-08-04T22:40:27.268Z,81.55
2023-08-04T22:42:29.824Z,80.92
2023-08-04T22:44:33.787Z,80.77
2023-08-04T22:46:36.471Z,80.86
2023-08-04T22:48:39.095Z,81.45
2023-08-04T22:50:42.352Z,81.36
2023-08-04T22:52:45.836Z,81.64
2023-08-04T22:54:48.457Z,81.42
2023-08-04T22:56:51.190Z,81.65
2023-08-04T22:58:54.068Z,81.57
2023-08-04T23:00:58.152Z,81.57
2023-08-04T23:03:00.893Z,81.66
2023-08-04T23:05:02.617Z,81.85
2023-08-04T23:07:05.720Z,81.50
2023-08-04T23:09:08.307Z,81.45
2023-08-04T23:11:11.027Z,81.55
2023-08-04T23:13:13.621Z,82.65
2023-08-04T23:15:16.233Z,82.48
2023-08-04T23:17:20.179Z,82.96
2023-08-04T23:19:22.793Z,83.09
2023-08-04T23:21:25.462Z,83.00
2023-08-04T23:23:28.164Z,82.73
2023-08-04T23:25:30.760Z,82.82
2023-08-04T23:27:33.336Z,82.96
2023-08-04T23:29:35.923Z,83.03
2023-08-04T23:31:39.682Z,82.95
2023-08-04T23:33:43.637Z,83.11
2023-08-04T23:35:53.574Z,83.24
2023-08-04T23:37:56.199Z,82.51
2023-08-04T23:39:59.721Z,82.76
2023-08-04T23:42:02.325Z,83.26
2023-08-04T23:44:05.319Z,83.61
2023-08-04T23:46:08.077Z,83.57
2023-08-04T23:48:10.716Z,83.41
2023-08-04T23:50:14.736Z,83.39
2023-08-04T23:52:17.356Z,82.68
2023-08-04T23:54:19.967Z,83.14
2023-08-04T23:56:22.666Z,83.79
2023-08-04T23:58:24.353Z,83.45
